createdAt,value
2023-02-18T00:00:30.650Z,8.00
2023-02-18T00:02:57.618Z,7.75
2023-02-18T00:05:24.694Z,7.00
2023-02-18T00:07:51.739Z,8.25
2023-02-18T00:10:18.773Z,6.00
2023-02-18T00:12:46.352Z,7.00
2023-02-18T00:15:13.742Z,9.00
2023-02-18T00:17:40.628Z,8.75
2023-02-18T00:20:08.260Z,9.00
2023-02-18T00:22:35.563Z,7.00
2023-02-18T00:25:02.474Z,7.00
2023-02-18T00:27:30.513Z,8.00
2023-02-18T00:29:58.794Z,7.00
2023-02-18T00:32:26.435Z,7.25
2023-02-18T00:34:53.436Z,7.00
2023-02-18T00:37:20.481Z,7.25
2023-02-18T00:39:47.615Z,7.00
2023-02-18T00:42:14.667Z,12.00
2023-02-18T00:44:41.569Z,12.00
2023-02-18T00:47:08.557Z,9.00
2023-02-18T00:49:35.581Z,7.50
2023-02-18T00:52:04.268Z,11.00
2023-02-18T00:54:31.259Z,12.00
2023-02-18T00:56:58.213Z,11.00
2023-02-18T00:59:26.238Z,9.00
2023-02-18T01:01:53.189Z,8.25
2023-02-18T01:04:20.795Z,6.00
2023-02-18T01:06:48.304Z,5.50
2023-02-18T01:09:15.380Z,8.00
2023-02-18T01:11:44.798Z,7.00
2023-02-18T01:14:11.719Z,5.00
2023-02-18T01:16:38.717Z,7.00
2023-02-18T01:19:08.556Z,8.00
2023-02-18T01:21:35.562Z,7.00
2023-02-18T01:24:02.492Z,6.00
2023-02-18T01:26:29.443Z,9.00
2023-02-18T01:28:56.369Z,6.50
2023-02-18T01:31:23.546Z,7.00
2023-02-18T01:33:51.358Z,8.00
2023-02-18T01:36:18.598Z,8.00
2023-02-18T01:38:45.522Z,10.00
2023-02-18T01:41:12.925Z,10.00
2023-02-18T01:43:40.160Z,11.00
2023-02-18T01:46:16.399Z,7.25
2023-02-18T01:48:51.477Z,8.00
2023-02-18T01:51:40.955Z,7.00
2023-02-18T01:54:16.918Z,7.25
2023-02-18T01:57:06.777Z,6.00
2023-02-18T02:00:05.141Z,7.00
2023-02-18T02:02:45.773Z,8.00
2023-02-18T02:05:13.638Z,7.00
2023-02-18T02:07:42.945Z,8.50
2023-02-18T02:10:11.487Z,7.00
2023-02-18T02:13:08.097Z,6.50
2023-02-18T02:15:40.812Z,5.00
2023-02-18T02:18:26.481Z,5.75
2023-02-18T02:21:15.345Z,5.00
2023-02-18T02:23:54.308Z,6.75
2023-02-18T02:26:46.003Z,8.00
2023-02-18T02:29:12.895Z,8.75
2023-02-18T02:31:53.840Z,7.00
2023-02-18T02:34:37.457Z,5.00
2023-02-18T02:37:22.287Z,5.00
2023-02-18T02:39:57.605Z,7.00
2023-02-18T02:42:38.446Z,8.00
2023-02-18T02:45:55.804Z,8.00
2023-02-18T02:48:44.331Z,8.00
2023-02-18T02:51:38.140Z,5.00
2023-02-18T02:54:26.510Z,5.50
2023-02-18T02:57:24.204Z,5.00
2023-02-18T03:00:16.079Z,6.50
2023-02-18T03:03:13.827Z,4.25
2023-02-18T03:05:49.768Z,5.00
2023-02-18T03:08:29.750Z,9.00
2023-02-18T03:11:08.143Z,11.00
2023-02-18T03:14:00.599Z,10.00
2023-02-18T03:16:49.136Z,11.00
2023-02-18T03:19:36.046Z,10.00
2023-02-18T03:22:09.516Z,7.00
2023-02-18T03:24:42.548Z,7.00
2023-02-18T03:27:25.541Z,8.75
2023-02-18T03:30:26.358Z,10.00
2023-02-18T03:33:00.443Z,11.00
2023-02-18T03:35:28.724Z,9.00
2023-02-18T03:38:12.477Z,10.75
2023-02-18T03:40:39.800Z,11.00
2023-02-18T03:43:06.947Z,9.00
2023-02-18T03:45:34.008Z,14.75
2023-02-18T03:48:01.044Z,14.00
2023-02-18T03:50:28.094Z,15.75
2023-02-18T03:52:55.042Z,15.00
2023-02-18T03:55:22.064Z,13.00
2023-02-18T03:57:48.994Z,13.00
2023-02-18T04:00:16.256Z,12.00
2023-02-18T04:02:43.153Z,13.50
2023-02-18T04:05:10.621Z,10.75
2023-02-18T04:07:37.547Z,8.00
2023-02-18T04:10:06.473Z,9.00
2023-02-18T04:12:33.461Z,5.75
2023-02-18T04:15:00.550Z,8.00
2023-02-18T04:17:27.423Z,12.00
2023-02-18T04:19:54.539Z,11.00
2023-02-18T04:22:21.585Z,9.00
2023-02-18T04:24:48.564Z,7.00
2023-02-18T04:27:15.532Z,8.00
2023-02-18T04:29:42.830Z,8.00
2023-02-18T04:32:09.702Z,11.00
2023-02-18T04:34:36.759Z,11.00
2023-02-18T04:37:03.741Z,10.00
2023-02-18T04:39:30.727Z,7.75
2023-02-18T04:41:57.560Z,6.25
2023-02-18T04:44:24.669Z,7.50
2023-02-18T04:46:51.522Z,8.50
2023-02-18T04:49:18.572Z,9.50
2023-02-18T04:51:45.671Z,9.00
2023-02-18T04:54:12.599Z,7.00
2023-02-18T04:56:39.497Z,9.50
2023-02-18T04:59:06.486Z,11.75
2023-02-18T05:01:33.493Z,12.00
2023-02-18T05:04:00.597Z,12.00
2023-02-18T05:06:27.607Z,11.00
2023-02-18T05:08:54.595Z,13.00
2023-02-18T05:11:21.543Z,11.00
2023-02-18T05:13:48.532Z,13.00
2023-02-18T05:16:15.424Z,9.00
2023-02-18T05:18:42.522Z,11.00
2023-02-18T05:21:09.430Z,12.00
2023-02-18T05:23:36.498Z,10.00
2023-02-18T05:26:03.842Z,9.00
2023-02-18T05:28:30.972Z,9.50
2023-02-18T05:30:57.886Z,9.50
2023-02-18T05:33:24.815Z,8.00
2023-02-18T05:35:51.725Z,8.50
2023-02-18T05:38:18.778Z,10.75
2023-02-18T05:40:46.234Z,11.00
2023-02-18T05:43:14.202Z,13.00
2023-02-18T05:45:41.084Z,9.00
2023-02-18T05:48:08.127Z,10.00
2023-02-18T05:50:35.312Z,10.00
2023-02-18T05:53:04.342Z,8.25
2023-02-18T05:55:31.346Z,9.00
2023-02-18T05:57:58.522Z,9.75
2023-02-18T06:00:25.387Z,8.75
2023-02-18T06:02:52.303Z,8.25
2023-02-18T06:05:19.381Z,8.00
2023-02-18T06:07:46.402Z,7.00
2023-02-18T06:10:13.401Z,6.00
2023-02-18T06:12:40.455Z,5.50
2023-02-18T06:15:07.817Z,7.00
2023-02-18T06:17:34.864Z,7.00
2023-02-18T06:20:02.082Z,7.00
2023-02-18T06:22:29.532Z,6.50
2023-02-18T06:24:56.443Z,8.00
2023-02-18T06:27:23.574Z,10.75
2023-02-18T06:29:50.455Z,10.00
2023-02-18T06:32:17.506Z,9.00
2023-02-18T06:34:44.622Z,11.75
2023-02-18T06:37:11.650Z,13.00
2023-02-18T06:39:39.823Z,11.00
2023-02-18T06:42:06.866Z,11.00
2023-02-18T06:44:36.850Z,11.25
2023-02-18T06:47:04.850Z,9.50
2023-02-18T06:49:31.800Z,10.00
2023-02-18T06:51:58.786Z,14.25
2023-02-18T06:54:25.730Z,11.00
2023-02-18T06:56:52.807Z,11.25
2023-02-18T06:59:19.783Z,11.75
2023-02-18T07:01:46.731Z,12.00
2023-02-18T07:04:13.715Z,10.25
2023-02-18T07:06:40.766Z,9.50
2023-02-18T07:09:07.720Z,13.00
2023-02-18T07:11:35.016Z,12.75
2023-02-18T07:14:01.934Z,13.00
2023-02-18T07:16:29.091Z,11.00
2023-02-18T07:18:56.095Z,9.00
2023-02-18T07:21:23.083Z,12.75
2023-02-18T07:23:50.017Z,13.00
2023-02-18T07:26:17.161Z,11.00
2023-02-18T07:28:44.316Z,9.00
2023-02-18T07:31:11.965Z,8.00
2023-02-18T07:33:39.041Z,8.50
2023-02-18T07:36:07.142Z,8.00
2023-02-18T07:38:34.223Z,9.50
2023-02-18T07:41:01.321Z,13.25
2023-02-18T07:43:28.209Z,12.00
2023-02-18T07:45:55.510Z,10.00
2023-02-18T07:48:22.497Z,11.75
2023-02-18T07:50:49.592Z,12.00
2023-02-18T07:53:17.176Z,9.00
2023-02-18T07:55:45.115Z,8.00
2023-02-18T07:58:12.002Z,4.00
2023-02-18T08:00:38.956Z,6.00
2023-02-18T08:03:06.048Z,4.25
2023-02-18T08:05:33.179Z,3.50
2023-02-18T08:08:00.151Z,6.00
2023-02-18T08:10:27.338Z,9.75
2023-02-18T08:12:54.282Z,10.00
2023-02-18T08:15:21.597Z,8.00
2023-02-18T08:17:48.562Z,10.00
2023-02-18T08:20:15.820Z,12.00
2023-02-18T08:22:42.995Z,10.75
2023-02-18T08:25:18.100Z,7.00
2023-02-18T08:27:54.666Z,7.00
2023-02-18T08:30:21.868Z,13.75
2023-02-18T08:32:48.893Z,10.50
2023-02-18T08:35:16.165Z,7.25
2023-02-18T08:37:52.938Z,7.00
2023-02-18T08:40:21.422Z,6.00
2023-02-18T08:42:48.477Z,10.00
2023-02-18T08:45:15.510Z,7.00
2023-02-18T08:48:13.535Z,8.75
2023-02-18T08:50:29.558Z,8.00
2023-02-18T08:52:57.635Z,5.00
2023-02-18T08:55:25.022Z,6.50
2023-02-18T08:57:52.099Z,6.00
2023-02-18T09:00:21.342Z,5.50
2023-02-18T09:02:48.716Z,4.75
2023-02-18T09:05:15.880Z,4.00
2023-02-18T09:07:43.036Z,8.25
2023-02-18T09:10:11.304Z,7.00
2023-02-18T09:12:38.937Z,5.00
2023-02-18T09:15:06.442Z,3.25
2023-02-18T09:17:33.526Z,3.75
2023-02-18T09:20:00.885Z,3.00
2023-02-18T09:22:28.148Z,7.00
2023-02-18T09:24:55.316Z,4.75
2023-02-18T09:27:24.872Z,5.00
2023-02-18T09:29:51.902Z,6.00
2023-02-18T09:32:33.573Z,7.75
2023-02-18T09:35:01.310Z,10.50
2023-02-18T09:37:28.259Z,11.00
2023-02-18T09:39:55.457Z,11.00
2023-02-18T09:42:31.220Z,5.50
2023-02-18T09:45:02.569Z,6.00
2023-02-18T09:47:37.332Z,5.00
2023-02-18T09:50:29.923Z,7.00
2023-02-18T09:53:00.451Z,5.00
2023-02-18T09:55:34.329Z,5.00
2023-02-18T09:58:04.824Z,5.25
2023-02-18T10:00:41.433Z,4.50
2023-02-18T10:03:15.360Z,9.50
2023-02-18T10:06:05.724Z,6.75
2023-02-18T10:08:36.937Z,5.00
2023-02-18T10:11:04.729Z,5.00
2023-02-18T10:13:34.090Z,9.75
2023-02-18T10:16:02.937Z,10.75
2023-02-18T10:18:40.129Z,7.00
2023-02-18T10:21:11.888Z,7.50
2023-02-18T10:23:42.615Z,13.00
2023-02-18T10:26:18.169Z,11.00
2023-02-18T10:28:46.398Z,11.00
2023-02-18T10:31:44.614Z,11.00
2023-02-18T10:34:30.532Z,12.00
2023-02-18T10:37:21.968Z,9.00
2023-02-18T10:40:16.715Z,7.00
2023-02-18T10:42:55.626Z,11.50
2023-02-18T10:45:25.550Z,11.00
2023-02-18T10:48:18.148Z,10.00
2023-02-18T10:50:46.430Z,8.00
2023-02-18T10:53:25.139Z,7.00
2023-02-18T10:55:52.147Z,7.00
2023-02-18T10:59:00.866Z,9.00
2023-02-18T11:01:29.578Z,9.00
2023-02-18T11:04:12.036Z,4.25
2023-02-18T11:06:46.202Z,4.00
2023-02-18T11:09:29.994Z,5.00
2023-02-18T11:12:13.547Z,5.00
2023-02-18T11:14:44.060Z,5.75
2023-02-18T11:17:26.747Z,8.00
2023-02-18T11:19:59.281Z,6.25
2023-02-18T11:22:34.089Z,9.25
2023-02-18T11:25:04.331Z,10.75
2023-02-18T11:27:46.413Z,7.00
2023-02-18T11:30:38.525Z,7.00
2023-02-18T11:33:27.382Z,7.75
2023-02-18T11:35:57.195Z,10.25
2023-02-18T11:38:29.500Z,11.00
2023-02-18T11:41:03.876Z,11.00
2023-02-18T11:43:34.628Z,5.25
2023-02-18T11:46:18.525Z,5.50
2023-02-18T11:48:47.094Z,6.00
2023-02-18T11:51:20.672Z,5.00
2023-02-18T11:53:57.929Z,4.75
2023-02-18T11:56:25.951Z,7.00
2023-02-18T11:58:53.553Z,6.50
2023-02-18T12:01:26.523Z,7.25
2023-02-18T12:04:06.284Z,7.00
2023-02-18T12:07:05.580Z,4.00
2023-02-18T12:09:40.666Z,6.00
2023-02-18T12:12:15.108Z,4.25
2023-02-18T12:14:42.059Z,3.50
2023-02-18T12:17:40.038Z,3.00
2023-02-18T12:20:45.357Z,5.00
2023-02-18T12:23:15.178Z,7.25
2023-02-18T12:25:45.173Z,5.00
2023-02-18T12:28:38.464Z,4.00
2023-02-18T12:31:05.460Z,5.75
2023-02-18T12:33:54.401Z,4.00
2023-02-18T12:36:37.238Z,3.00
2023-02-18T12:39:11.301Z,5.00
2023-02-18T12:41:54.459Z,3.00
2023-02-18T12:44:40.174Z,1.00
2023-02-18T12:47:19.176Z,1.50
2023-02-18T12:50:17.129Z,3.00
2023-02-18T12:53:14.971Z,3.00
2023-02-18T12:56:04.783Z,3.00
2023-02-18T12:58:43.833Z,4.00
2023-02-18T13:01:47.606Z,5.00
2023-02-18T13:04:44.794Z,1.00
2023-02-18T13:07:29.814Z,3.00
2023-02-18T13:10:02.825Z,2.25
2023-02-18T13:12:52.508Z,1.00
2023-02-18T13:15:43.276Z,3.00
2023-02-18T13:18:16.227Z,3.00
2023-02-18T13:20:49.488Z,3.00
2023-02-18T13:23:20.229Z,3.50
2023-02-18T13:25:51.668Z,5.00
2023-02-18T13:28:37.304Z,3.00
2023-02-18T13:31:25.605Z,2.00
2023-02-18T13:34:03.829Z,2.50
2023-02-18T13:36:47.075Z,4.00
2023-02-18T13:39:19.811Z,3.50
2023-02-18T13:41:49.546Z,4.00
2023-02-18T13:44:22.507Z,3.00
2023-02-18T13:46:54.525Z,3.00
2023-02-18T13:49:24.860Z,3.00
2023-02-18T13:51:57.948Z,4.50
2023-02-18T13:54:33.985Z,2.00
2023-02-18T13:57:05.277Z,5.00
2023-02-18T13:59:46.093Z,1.75
2023-02-18T14:02:25.351Z,1.00
2023-02-18T14:04:56.014Z,1.00
2023-02-18T14:07:35.220Z,1.00
2023-02-18T14:10:23.723Z,1.25
2023-02-18T14:12:56.847Z,3.00
2023-02-18T14:15:23.792Z,3.00
2023-02-18T14:18:03.108Z,3.00
2023-02-18T14:20:32.203Z,3.75
2023-02-18T14:22:59.838Z,2.50
2023-02-18T14:25:40.528Z,3.00
2023-02-18T14:28:33.603Z,3.00
2023-02-18T14:31:29.780Z,2.00
2023-02-18T14:34:00.164Z,5.00
2023-02-18T14:36:45.352Z,3.00
2023-02-18T14:39:49.593Z,4.00
2023-02-18T14:42:45.959Z,3.00
2023-02-18T14:45:31.715Z,5.00
2023-02-18T14:48:26.222Z,9.25
2023-02-18T14:50:53.927Z,5.50
2023-02-18T14:53:24.972Z,5.25
2023-02-18T14:56:14.882Z,2.00
2023-02-18T14:58:57.282Z,3.00
2023-02-18T15:01:34.474Z,1.00
2023-02-18T15:04:03.232Z,3.00
2023-02-18T15:06:30.073Z,4.75
2023-02-18T15:09:01.967Z,3.00
2023-02-18T15:11:52.175Z,2.00
2023-02-18T15:14:24.663Z,1.00
2023-02-18T15:16:52.408Z,1.00
2023-02-18T15:19:24.998Z,1.00
2023-02-18T15:21:55.369Z,4.50
2023-02-18T15:24:38.151Z,5.75
2023-02-18T15:27:18.124Z,1.00
2023-02-18T15:29:50.308Z,1.00
2023-02-18T15:32:28.793Z,1.00
2023-02-18T15:35:14.360Z,3.00
2023-02-18T15:37:45.527Z,3.00
2023-02-18T15:40:16.901Z,2.00
2023-02-18T15:42:48.332Z,1.00
2023-02-18T15:45:15.308Z,2.00
2023-02-18T15:47:47.489Z,3.00
2023-02-18T15:50:22.519Z,3.00
2023-02-18T15:52:50.888Z,2.50
2023-02-18T15:55:42.248Z,3.00
2023-02-18T15:58:21.454Z,2.00
2023-02-18T16:01:01.736Z,1.00
2023-02-18T16:03:44.740Z,4.75
2023-02-18T16:06:35.615Z,2.00
2023-02-18T16:09:20.892Z,2.00
2023-02-18T16:11:58.746Z,1.00
2023-02-18T16:14:34.875Z,3.00
2023-02-18T16:17:24.909Z,2.00
2023-02-18T16:20:04.422Z,3.00
2023-02-18T16:22:31.561Z,2.00
2023-02-18T16:25:15.177Z,1.00
2023-02-18T16:27:58.971Z,2.00
2023-02-18T16:30:29.709Z,2.25
2023-02-18T16:32:57.468Z,1.25
2023-02-18T16:35:27.865Z,2.75
2023-02-18T16:37:56.670Z,1.00
2023-02-18T16:40:31.817Z,1.75
2023-02-18T16:43:02.581Z,1.50
2023-02-18T16:45:57.407Z,1.50
2023-02-18T16:48:29.998Z,2.75
2023-02-18T16:50:59.494Z,0.50
2023-02-18T16:53:26.476Z,3.00
2023-02-18T16:55:53.549Z,2.25
2023-02-18T16:58:20.612Z,0.00
2023-02-18T17:00:51.575Z,0.00
2023-02-18T17:03:18.935Z,1.00
2023-02-18T17:05:46.030Z,1.75
2023-02-18T17:08:17.651Z,1.50
2023-02-18T17:10:49.477Z,1.00
2023-02-18T17:13:22.399Z,2.00
2023-02-18T17:15:52.582Z,1.00
2023-02-18T17:18:19.782Z,2.00
2023-02-18T17:20:48.256Z,1.00
2023-02-18T17:23:16.677Z,1.00
2023-02-18T17:25:44.952Z,1.00
2023-02-18T17:28:11.859Z,1.00
2023-02-18T17:30:41.998Z,0.00
2023-02-18T17:33:14.690Z,0.00
2023-02-18T17:35:41.814Z,0.75
2023-02-18T17:38:17.177Z,2.75
2023-02-18T17:40:44.575Z,0.00
2023-02-18T17:43:16.421Z,1.00
2023-02-18T17:45:50.985Z,1.00
2023-02-18T17:48:18.118Z,0.50
2023-02-18T17:50:45.478Z,1.00
2023-02-18T17:53:17.019Z,2.75
2023-02-18T17:55:45.959Z,1.00
2023-02-18T17:58:14.154Z,0.00
2023-02-18T18:00:46.385Z,0.00
2023-02-18T18:03:13.972Z,1.00
2023-02-18T18:05:43.311Z,1.00
2023-02-18T18:08:10.898Z,0.00
2023-02-18T18:10:49.855Z,0.00
2023-02-18T18:13:33.266Z,0.00
2023-02-18T18:16:01.232Z,0.00
2023-02-18T18:18:28.171Z,0.50
2023-02-18T18:20:58.681Z,0.00
2023-02-18T18:23:25.936Z,0.00
2023-02-18T18:25:55.405Z,0.75
2023-02-18T18:28:26.374Z,0.00
2023-02-18T18:30:55.852Z,0.00
2023-02-18T18:33:29.504Z,1.00
2023-02-18T18:35:58.332Z,1.00
2023-02-18T18:38:27.165Z,1.00
2023-02-18T18:40:55.063Z,1.00
2023-02-18T18:43:29.672Z,1.00
2023-02-18T18:45:59.401Z,0.00
2023-02-18T18:48:26.545Z,0.00
2023-02-18T18:50:53.977Z,0.00
2023-02-18T18:53:28.063Z,0.00
2023-02-18T18:55:59.666Z,0.00
2023-02-18T18:58:26.829Z,0.00
2023-02-18T19:00:56.887Z,2.00
2023-02-18T19:03:26.052Z,1.00
2023-02-18T19:05:53.808Z,0.50
2023-02-18T19:08:21.460Z,2.00
2023-02-18T19:10:51.304Z,0.00
2023-02-18T19:13:26.899Z,1.00
2023-02-18T19:16:01.493Z,1.00
2023-02-18T19:18:28.531Z,0.00
2023-02-18T19:20:56.433Z,0.00
2023-02-18T19:23:23.689Z,1.50
2023-02-18T19:25:50.637Z,2.00
2023-02-18T19:28:20.719Z,0.25
2023-02-18T19:30:47.967Z,1.00
2023-02-18T19:33:18.433Z,1.00
2023-02-18T19:35:46.316Z,0.00
2023-02-18T19:38:15.540Z,0.75
2023-02-18T19:40:43.915Z,0.25
2023-02-18T19:43:12.028Z,2.00
2023-02-18T19:45:49.501Z,1.00
2023-02-18T19:48:16.680Z,1.00
2023-02-18T19:50:44.570Z,2.00
2023-02-18T19:53:11.571Z,1.00
2023-02-18T19:55:39.283Z,0.00
2023-02-18T19:58:06.718Z,0.00
2023-02-18T20:00:33.838Z,0.00
2023-02-18T20:03:00.797Z,1.00
2023-02-18T20:05:27.724Z,3.00
2023-02-18T20:07:54.662Z,3.00
2023-02-18T20:10:22.239Z,3.00
2023-02-18T20:12:53.694Z,3.50
2023-02-18T20:15:21.669Z,1.00
2023-02-18T20:17:49.346Z,4.25
2023-02-18T20:20:17.177Z,2.00
2023-02-18T20:22:44.352Z,3.50
2023-02-18T20:25:11.802Z,3.25
2023-02-18T20:27:47.997Z,2.00
2023-02-18T20:30:22.114Z,2.00
2023-02-18T20:32:49.003Z,1.00
2023-02-18T20:35:16.084Z,0.25
2023-02-18T20:37:43.286Z,1.00
2023-02-18T20:40:10.495Z,1.00
2023-02-18T20:42:37.419Z,1.75
2023-02-18T20:45:04.756Z,1.00
2023-02-18T20:47:31.627Z,0.00
2023-02-18T20:49:58.633Z,1.00
2023-02-18T20:52:27.001Z,1.00
2023-02-18T20:54:53.952Z,1.00
2023-02-18T20:57:20.888Z,1.00
2023-02-18T20:59:47.936Z,1.25
2023-02-18T21:02:15.324Z,2.25
2023-02-18T21:04:42.664Z,1.00
2023-02-18T21:07:09.601Z,1.00
2023-02-18T21:09:36.725Z,1.50
2023-02-18T21:12:03.876Z,1.00
2023-02-18T21:14:31.839Z,1.00
2023-02-18T21:16:58.751Z,0.00
2023-02-18T21:19:25.754Z,2.00
2023-02-18T21:21:52.704Z,3.00
2023-02-18T21:24:19.945Z,3.00
2023-02-18T21:26:46.856Z,3.00
2023-02-18T21:29:16.049Z,1.00
2023-02-18T21:31:44.044Z,1.00
2023-02-18T21:34:13.236Z,2.00
2023-02-18T21:36:40.819Z,1.25
2023-02-18T21:39:09.761Z,0.00
2023-02-18T21:41:40.383Z,1.00
2023-02-18T21:44:09.009Z,1.75
2023-02-18T21:46:36.884Z,1.00
2023-02-18T21:49:06.105Z,2.00
2023-02-18T21:51:46.887Z,1.00
2023-02-18T21:54:22.712Z,3.00
2023-02-18T21:56:51.894Z,0.00
2023-02-18T21:59:20.293Z,1.00
2023-02-18T22:01:47.992Z,0.00
2023-02-18T22:04:15.444Z,3.00
2023-02-18T22:06:42.608Z,1.00
2023-02-18T22:09:09.654Z,1.00
2023-02-18T22:11:36.757Z,1.00
2023-02-18T22:14:03.666Z,2.00
2023-02-18T22:16:30.626Z,2.00
2023-02-18T22:18:58.393Z,3.00
2023-02-18T22:21:25.966Z,1.00
2023-02-18T22:23:53.106Z,3.00
2023-02-18T22:26:20.172Z,0.25
2023-02-18T22:28:58.190Z,2.75
2023-02-18T22:31:27.693Z,1.25
2023-02-18T22:33:56.420Z,1.00
2023-02-18T22:36:25.384Z,1.00
2023-02-18T22:38:52.918Z,0.75
2023-02-18T22:41:22.320Z,0.75
2023-02-18T22:43:54.087Z,0.00
2023-02-18T22:46:21.106Z,1.00
2023-02-18T22:48:48.172Z,0.50
2023-02-18T22:51:23.861Z,1.00
2023-02-18T22:53:52.419Z,1.00
2023-02-18T22:56:20.997Z,1.00
2023-02-18T22:58:50.008Z,1.00
2023-02-18T23:01:27.588Z,3.00
2023-02-18T23:03:56.501Z,2.00
2023-02-18T23:06:23.444Z,1.00
2023-02-18T23:08:50.961Z,0.00
2023-02-18T23:11:20.082Z,1.50
2023-02-18T23:13:47.936Z,2.00
2023-02-18T23:16:15.335Z,2.50
2023-02-18T23:18:42.629Z,1.00
2023-02-18T23:21:15.180Z,1.50
2023-02-18T23:23:42.165Z,0.00
2023-02-18T23:26:09.136Z,2.00
2023-02-18T23:28:36.105Z,1.00
2023-02-18T23:31:03.228Z,1.00
2023-02-18T23:33:30.362Z,2.00
2023-02-18T23:35:57.206Z,1.25
2023-02-18T23:38:24.147Z,1.00
2023-02-18T23:40:51.102Z,2.00
2023-02-18T23:43:18.178Z,0.50
2023-02-18T23:45:45.090Z,1.00
2023-02-18T23:48:12.049Z,1.00
2023-02-18T23:50:38.902Z,0.00
2023-02-18T23:53:05.908Z,1.00
2023-02-18T23:55:32.886Z,3.00
2023-02-18T23:57:59.878Z,1.00
